sensor_id;sensor_type;location;lat;lon;timestamp;P1;durP1;ratioP1;P2;durP2;ratioP2
16254;SDS011;8235;52.198;9.904;2023-04-30T00:02:20;6.43;;;3.30;;
16254;SDS011;8235;52.198;9.904;2023-04-30T00:04:46;7.57;;;3.10;;
16254;SDS011;8235;52.198;9.904;2023-04-30T00:07:13;4.97;;;3.30;;
16254;SDS011;8235;52.198;9.904;2023-04-30T00:09:40;4.87;;;3.37;;
16254;SDS011;8235;52.198;9.904;2023-04-30T00:12:07;4.83;;;2.93;;
16254;SDS011;8235;52.198;9.904;2023-04-30T00:14:33;5.93;;;3.27;;
16254;SDS011;8235;52.198;9.904;2023-04-30T00:17:00;5.77;;;3.00;;
16254;SDS011;8235;52.198;9.904;2023-04-30T00:19:27;6.00;;;3.13;;
16254;SDS011;8235;52.198;9.904;2023-04-30T00:21:53;6.60;;;3.20;;
16254;SDS011;8235;52.198;9.904;2023-04-30T00:24:20;6.40;;;3.17;;
16254;SDS011;8235;52.198;9.904;2023-04-30T00:26:47;7.20;;;3.40;;
16254;SDS011;8235;52.198;9.904;2023-04-30T00:29:14;10.57;;;5.30;;
16254;SDS011;8235;52.198;9.904;2023-04-30T00:31:40;11.80;;;6.80;;
16254;SDS011;8235;52.198;9.904;2023-04-30T00:34:07;13.73;;;7.00;;
16254;SDS011;8235;52.198;9.904;2023-04-30T00:36:33;10.10;;;5.13;;
16254;SDS011;8235;52.198;9.904;2023-04-30T00:39:00;6.93;;;4.27;;
16254;SDS011;8235;52.198;9.904;2023-04-30T00:41:26;4.83;;;3.70;;
16254;SDS011;8235;52.198;9.904;2023-04-30T00:43:55;8.33;;;3.47;;
16254;SDS011;8235;52.198;9.904;2023-04-30T00:46:22;6.40;;;3.57;;
16254;SDS011;8235;52.198;9.904;2023-04-30T00:48:48;8.07;;;3.47;;
16254;SDS011;8235;52.198;9.904;2023-04-30T00:51:15;7.87;;;3.60;;
16254;SDS011;8235;52.198;9.904;2023-04-30T00:53:41;5.57;;;3.70;;
16254;SDS011;8235;52.198;9.904;2023-04-30T00:56:09;8.37;;;4.77;;
16254;SDS011;8235;52.198;9.904;2023-04-30T00:58:35;6.77;;;4.20;;
16254;SDS011;8235;52.198;9.904;2023-04-30T01:01:03;6.17;;;4.30;;
16254;SDS011;8235;52.198;9.904;2023-04-30T01:03:30;6.50;;;4.00;;
16254;SDS011;8235;52.198;9.904;2023-04-30T01:05:59;6.40;;;4.00;;
16254;SDS011;8235;52.198;9.904;2023-04-30T01:08:26;5.40;;;3.80;;
16254;SDS011;8235;52.198;9.904;2023-04-30T01:10:53;6.43;;;4.10;;
16254;SDS011;8235;52.198;9.904;2023-04-30T01:13:30;8.73;;;4.47;;
16254;SDS011;8235;52.198;9.904;2023-04-30T01:16:06;12.30;;;4.97;;
16254;SDS011;8235;52.198;9.904;2023-04-30T01:18:41;6.00;;;3.90;;
16254;SDS011;8235;52.198;9.904;2023-04-30T01:21:13;8.30;;;4.30;;
16254;SDS011;8235;52.198;9.904;2023-04-30T01:23:47;5.30;;;3.80;;
16254;SDS011;8235;52.198;9.904;2023-04-30T01:26:28;6.53;;;3.70;;
16254;SDS011;8235;52.198;9.904;2023-04-30T01:29:08;8.17;;;3.93;;
16254;SDS011;8235;52.198;9.904;2023-04-30T01:31:37;7.93;;;3.50;;
16254;SDS011;8235;52.198;9.904;2023-04-30T01:34:03;5.77;;;4.10;;
16254;SDS011;8235;52.198;9.904;2023-04-30T01:36:34;6.60;;;3.67;;
16254;SDS011;8235;52.198;9.904;2023-04-30T01:39:14;6.27;;;3.80;;
16254;SDS011;8235;52.198;9.904;2023-04-30T01:41:57;5.60;;;3.27;;
16254;SDS011;8235;52.198;9.904;2023-04-30T01:44:38;6.33;;;3.80;;
16254;SDS011;8235;52.198;9.904;2023-04-30T01:47:12;6.53;;;4.07;;
16254;SDS011;8235;52.198;9.904;2023-04-30T01:49:50;6.00;;;3.40;;
16254;SDS011;8235;52.198;9.904;2023-04-30T01:52:26;6.40;;;3.93;;
16254;SDS011;8235;52.198;9.904;2023-04-30T01:54:59;4.93;;;2.97;;
16254;SDS011;8235;52.198;9.904;2023-04-30T01:57:31;7.83;;;3.60;;
16254;SDS011;8235;52.198;9.904;2023-04-30T02:00:02;6.43;;;3.30;;
16254;SDS011;8235;52.198;9.904;2023-04-30T02:02:29;8.23;;;4.30;;
16254;SDS011;8235;52.198;9.904;2023-04-30T02:04:56;7.03;;;3.60;;
16254;SDS011;8235;52.198;9.904;2023-04-30T02:07:26;8.07;;;4.10;;
16254;SDS011;8235;52.198;9.904;2023-04-30T02:10:05;8.30;;;3.20;;
16254;SDS011;8235;52.198;9.904;2023-04-30T02:12:33;4.50;;;2.90;;
16254;SDS011;8235;52.198;9.904;2023-04-30T02:14:59;4.73;;;2.83;;
16254;SDS011;8235;52.198;9.904;2023-04-30T02:17:27;6.27;;;3.13;;
16254;SDS011;8235;52.198;9.904;2023-04-30T02:19:54;8.07;;;3.33;;
16254;SDS011;8235;52.198;9.904;2023-04-30T02:22:20;10.63;;;3.70;;
16254;SDS011;8235;52.198;9.904;2023-04-30T02:24:47;4.80;;;3.17;;
16254;SDS011;8235;52.198;9.904;2023-04-30T02:27:14;4.73;;;3.23;;
16254;SDS011;8235;52.198;9.904;2023-04-30T02:29:40;4.53;;;3.40;;
16254;SDS011;8235;52.198;9.904;2023-04-30T02:32:07;4.93;;;3.50;;
16254;SDS011;8235;52.198;9.904;2023-04-30T02:34:34;9.20;;;3.67;;
16254;SDS011;8235;52.198;9.904;2023-04-30T02:37:01;5.83;;;3.10;;
16254;SDS011;8235;52.198;9.904;2023-04-30T02:39:27;3.77;;;2.57;;
16254;SDS011;8235;52.198;9.904;2023-04-30T02:41:54;4.80;;;2.50;;
16254;SDS011;8235;52.198;9.904;2023-04-30T02:44:20;5.93;;;3.23;;
16254;SDS011;8235;52.198;9.904;2023-04-30T02:46:47;4.87;;;2.90;;
16254;SDS011;8235;52.198;9.904;2023-04-30T02:49:13;6.83;;;2.90;;
16254;SDS011;8235;52.198;9.904;2023-04-30T02:51:41;5.60;;;3.00;;
16254;SDS011;8235;52.198;9.904;2023-04-30T02:54:07;7.37;;;3.43;;
16254;SDS011;8235;52.198;9.904;2023-04-30T02:56:34;3.80;;;2.90;;
16254;SDS011;8235;52.198;9.904;2023-04-30T02:59:00;7.13;;;3.20;;
16254;SDS011;8235;52.198;9.904;2023-04-30T03:01:27;5.17;;;3.43;;
16254;SDS011;8235;52.198;9.904;2023-04-30T03:03:53;4.90;;;3.20;;
16254;SDS011;8235;52.198;9.904;2023-04-30T03:06:20;5.43;;;3.20;;
16254;SDS011;8235;52.198;9.904;2023-04-30T03:08:48;5.00;;;3.40;;
16254;SDS011;8235;52.198;9.904;2023-04-30T03:11:14;6.60;;;3.27;;
16254;SDS011;8235;52.198;9.904;2023-04-30T03:13:41;7.23;;;3.57;;
16254;SDS011;8235;52.198;9.904;2023-04-30T03:16:08;6.53;;;3.67;;
16254;SDS011;8235;52.198;9.904;2023-04-30T03:18:35;7.97;;;3.40;;
16254;SDS011;8235;52.198;9.904;2023-04-30T03:21:01;7.83;;;3.43;;
16254;SDS011;8235;52.198;9.904;2023-04-30T03:23:28;5.33;;;2.97;;
16254;SDS011;8235;52.198;9.904;2023-04-30T03:25:55;4.60;;;2.90;;
16254;SDS011;8235;52.198;9.904;2023-04-30T03:28:22;5.50;;;2.50;;
16254;SDS011;8235;52.198;9.904;2023-04-30T03:30:49;5.00;;;3.17;;
16254;SDS011;8235;52.198;9.904;2023-04-30T03:33:15;4.23;;;2.57;;
16254;SDS011;8235;52.198;9.904;2023-04-30T03:35:41;5.57;;;2.80;;
16254;SDS011;8235;52.198;9.904;2023-04-30T03:38:08;6.03;;;3.00;;
16254;SDS011;8235;52.198;9.904;2023-04-30T03:40:34;3.90;;;2.83;;
16254;SDS011;8235;52.198;9.904;2023-04-30T03:43:02;4.37;;;2.93;;
16254;SDS011;8235;52.198;9.904;2023-04-30T03:45:29;5.00;;;3.00;;
16254;SDS011;8235;52.198;9.904;2023-04-30T03:47:55;3.47;;;2.70;;
16254;SDS011;8235;52.198;9.904;2023-04-30T03:50:22;6.87;;;2.70;;
16254;SDS011;8235;52.198;9.904;2023-04-30T03:52:48;4.23;;;3.17;;
16254;SDS011;8235;52.198;9.904;2023-04-30T03:55:15;5.90;;;3.07;;
16254;SDS011;8235;52.198;9.904;2023-04-30T03:57:41;8.03;;;3.07;;
16254;SDS011;8235;52.198;9.904;2023-04-30T04:00:09;5.40;;;2.97;;
16254;SDS011;8235;52.198;9.904;2023-04-30T04:02:37;7.10;;;3.43;;
16254;SDS011;8235;52.198;9.904;2023-04-30T04:05:04;3.90;;;2.97;;
16254;SDS011;8235;52.198;9.904;2023-04-30T04:07:32;3.20;;;2.53;;
16254;SDS011;8235;52.198;9.904;2023-04-30T04:09:58;5.60;;;3.37;;
16254;SDS011;8235;52.198;9.904;2023-04-30T04:12:25;7.50;;;3.67;;
16254;SDS011;8235;52.198;9.904;2023-04-30T04:14:51;3.97;;;3.20;;
16254;SDS011;8235;52.198;9.904;2023-04-30T04:17:19;5.10;;;2.87;;
16254;SDS011;8235;52.198;9.904;2023-04-30T04:19:46;13.07;;;3.40;;
16254;SDS011;8235;52.198;9.904;2023-04-30T04:22:12;7.30;;;2.70;;
16254;SDS011;8235;52.198;9.904;2023-04-30T04:24:39;3.50;;;2.80;;
16254;SDS011;8235;52.198;9.904;2023-04-30T04:27:05;6.87;;;4.20;;
16254;SDS011;8235;52.198;9.904;2023-04-30T04:29:32;9.43;;;3.80;;
16254;SDS011;8235;52.198;9.904;2023-04-30T04:31:58;6.80;;;3.03;;
16254;SDS011;8235;52.198;9.904;2023-04-30T04:34:28;4.60;;;3.03;;
16254;SDS011;8235;52.198;9.904;2023-04-30T04:36:54;6.13;;;2.60;;
16254;SDS011;8235;52.198;9.904;2023-04-30T04:39:22;4.07;;;2.50;;
16254;SDS011;8235;52.198;9.904;2023-04-30T04:41:48;6.97;;;3.40;;
16254;SDS011;8235;52.198;9.904;2023-04-30T04:44:15;7.77;;;3.93;;
16254;SDS011;8235;52.198;9.904;2023-04-30T04:46:42;4.43;;;3.30;;
16254;SDS011;8235;52.198;9.904;2023-04-30T04:49:09;4.63;;;3.07;;
16254;SDS011;8235;52.198;9.904;2023-04-30T04:51:37;7.60;;;3.07;;
16254;SDS011;8235;52.198;9.904;2023-04-30T04:54:04;5.63;;;3.07;;
16254;SDS011;8235;52.198;9.904;2023-04-30T04:56:31;4.93;;;3.50;;
16254;SDS011;8235;52.198;9.904;2023-04-30T04:58:58;11.53;;;3.53;;
16254;SDS011;8235;52.198;9.904;2023-04-30T05:01:24;5.20;;;3.47;;
16254;SDS011;8235;52.198;9.904;2023-04-30T05:03:51;6.33;;;3.43;;
16254;SDS011;8235;52.198;9.904;2023-04-30T05:06:18;7.07;;;4.33;;
16254;SDS011;8235;52.198;9.904;2023-04-30T05:08:46;7.53;;;3.67;;
16254;SDS011;8235;52.198;9.904;2023-04-30T05:11:12;7.03;;;4.03;;
16254;SDS011;8235;52.198;9.904;2023-04-30T05:13:38;8.30;;;4.20;;
16254;SDS011;8235;52.198;9.904;2023-04-30T05:16:05;7.90;;;3.80;;
16254;SDS011;8235;52.198;9.904;2023-04-30T05:18:32;5.93;;;4.17;;
16254;SDS011;8235;52.198;9.904;2023-04-30T05:20:58;10.40;;;5.30;;
16254;SDS011;8235;52.198;9.904;2023-04-30T05:23:24;6.50;;;5.00;;
16254;SDS011;8235;52.198;9.904;2023-04-30T05:25:53;8.13;;;4.83;;
16254;SDS011;8235;52.198;9.904;2023-04-30T05:28:21;8.70;;;5.30;;
16254;SDS011;8235;52.198;9.904;2023-04-30T05:30:47;13.90;;;5.63;;
16254;SDS011;8235;52.198;9.904;2023-04-30T05:33:13;8.47;;;5.37;;
16254;SDS011;8235;52.198;9.904;2023-04-30T05:35:40;11.40;;;5.97;;
16254;SDS011;8235;52.198;9.904;2023-04-30T05:38:07;12.47;;;5.70;;
16254;SDS011;8235;52.198;9.904;2023-04-30T05:40:33;10.77;;;5.00;;
16254;SDS011;8235;52.198;9.904;2023-04-30T05:43:01;12.67;;;5.90;;
16254;SDS011;8235;52.198;9.904;2023-04-30T05:45:27;8.53;;;5.47;;
16254;SDS011;8235;52.198;9.904;2023-04-30T05:47:54;11.00;;;5.20;;
16254;SDS011;8235;52.198;9.904;2023-04-30T05:50:20;9.17;;;4.70;;
16254;SDS011;8235;52.198;9.904;2023-04-30T05:52:47;10.67;;;5.00;;
16254;SDS011;8235;52.198;9.904;2023-04-30T05:55:14;9.33;;;4.83;;
16254;SDS011;8235;52.198;9.904;2023-04-30T05:57:40;8.70;;;5.00;;
16254;SDS011;8235;52.198;9.904;2023-04-30T06:00:08;9.07;;;5.07;;
16254;SDS011;8235;52.198;9.904;2023-04-30T06:02:36;10.27;;;4.87;;
16254;SDS011;8235;52.198;9.904;2023-04-30T06:05:03;7.53;;;3.83;;
16254;SDS011;8235;52.198;9.904;2023-04-30T06:07:30;6.50;;;4.00;;
16254;SDS011;8235;52.198;9.904;2023-04-30T06:09:56;6.27;;;3.67;;
16254;SDS011;8235;52.198;9.904;2023-04-30T06:12:22;9.10;;;3.93;;
16254;SDS011;8235;52.198;9.904;2023-04-30T06:14:50;6.37;;;3.30;;
16254;SDS011;8235;52.198;9.904;2023-04-30T06:17:18;9.17;;;4.00;;
16254;SDS011;8235;52.198;9.904;2023-04-30T06:19:44;9.10;;;3.67;;
16254;SDS011;8235;52.198;9.904;2023-04-30T06:22:11;8.07;;;3.80;;
16254;SDS011;8235;52.198;9.904;2023-04-30T06:24:37;11.87;;;3.83;;
16254;SDS011;8235;52.198;9.904;2023-04-30T06:27:04;9.27;;;3.43;;
16254;SDS011;8235;52.198;9.904;2023-04-30T06:29:30;6.90;;;3.00;;
16254;SDS011;8235;52.198;9.904;2023-04-30T06:31:57;8.63;;;2.80;;
16254;SDS011;8235;52.198;9.904;2023-04-30T06:34:25;11.50;;;2.60;;
16254;SDS011;8235;52.198;9.904;2023-04-30T06:36:51;4.30;;;2.33;;
16254;SDS011;8235;52.198;9.904;2023-04-30T06:39:18;6.63;;;2.47;;
16254;SDS011;8235;52.198;9.904;2023-04-30T06:41:45;7.63;;;2.97;;
16254;SDS011;8235;52.198;9.904;2023-04-30T06:44:12;9.20;;;2.97;;
16254;SDS011;8235;52.198;9.904;2023-04-30T06:46:39;5.37;;;2.67;;
16254;SDS011;8235;52.198;9.904;2023-04-30T06:49:05;5.83;;;2.97;;
16254;SDS011;8235;52.198;9.904;2023-04-30T06:51:33;6.53;;;2.70;;
16254;SDS011;8235;52.198;9.904;2023-04-30T06:54:00;7.10;;;2.83;;
16254;SDS011;8235;52.198;9.904;2023-04-30T06:56:26;7.57;;;2.50;;
16254;SDS011;8235;52.198;9.904;2023-04-30T06:58:53;7.33;;;2.73;;
16254;SDS011;8235;52.198;9.904;2023-04-30T07:01:19;6.70;;;2.60;;
16254;SDS011;8235;52.198;9.904;2023-04-30T07:03:46;7.20;;;2.87;;
16254;SDS011;8235;52.198;9.904;2023-04-30T07:06:12;9.07;;;3.00;;
16254;SDS011;8235;52.198;9.904;2023-04-30T07:08:40;4.33;;;2.30;;
16254;SDS011;8235;52.198;9.904;2023-04-30T07:11:07;5.17;;;2.67;;
16254;SDS011;8235;52.198;9.904;2023-04-30T07:13:34;6.37;;;2.33;;
16254;SDS011;8235;52.198;9.904;2023-04-30T07:16:01;7.10;;;2.57;;
16254;SDS011;8235;52.198;9.904;2023-04-30T07:18:28;5.40;;;2.23;;
16254;SDS011;8235;52.198;9.904;2023-04-30T07:20:55;6.80;;;2.77;;
16254;SDS011;8235;52.198;9.904;2023-04-30T07:23:22;8.40;;;2.20;;
16254;SDS011;8235;52.198;9.904;2023-04-30T07:25:50;5.50;;;2.40;;
16254;SDS011;8235;52.198;9.904;2023-04-30T07:28:18;6.40;;;2.40;;
16254;SDS011;8235;52.198;9.904;2023-04-30T07:30:44;8.60;;;2.53;;
16254;SDS011;8235;52.198;9.904;2023-04-30T07:33:11;4.80;;;2.27;;
16254;SDS011;8235;52.198;9.904;2023-04-30T07:35:38;7.00;;;2.73;;
16254;SDS011;8235;52.198;9.904;2023-04-30T07:38:05;8.23;;;2.33;;
16254;SDS011;8235;52.198;9.904;2023-04-30T07:40:32;10.50;;;2.80;;
16254;SDS011;8235;52.198;9.904;2023-04-30T07:43:00;6.03;;;2.53;;
16254;SDS011;8235;52.198;9.904;2023-04-30T07:45:28;6.57;;;2.80;;
16254;SDS011;8235;52.198;9.904;2023-04-30T07:47:55;12.43;;;2.60;;
16254;SDS011;8235;52.198;9.904;2023-04-30T07:50:21;7.53;;;2.63;;
16254;SDS011;8235;52.198;9.904;2023-04-30T07:52:48;6.00;;;2.63;;
16254;SDS011;8235;52.198;9.904;2023-04-30T07:55:14;8.63;;;2.73;;
16254;SDS011;8235;52.198;9.904;2023-04-30T07:57:41;9.23;;;3.10;;
16254;SDS011;8235;52.198;9.904;2023-04-30T08:00:09;7.57;;;2.60;;
16254;SDS011;8235;52.198;9.904;2023-04-30T08:02:37;6.83;;;2.63;;
16254;SDS011;8235;52.198;9.904;2023-04-30T08:05:04;6.23;;;2.57;;
16254;SDS011;8235;52.198;9.904;2023-04-30T08:07:31;4.73;;;2.10;;
16254;SDS011;8235;52.198;9.904;2023-04-30T08:09:57;9.77;;;3.00;;
16254;SDS011;8235;52.198;9.904;2023-04-30T08:12:24;5.77;;;2.53;;
16254;SDS011;8235;52.198;9.904;2023-04-30T08:14:58;7.13;;;3.03;;
16254;SDS011;8235;52.198;9.904;2023-04-30T08:17:26;4.37;;;2.30;;
16254;SDS011;8235;52.198;9.904;2023-04-30T08:19:52;5.53;;;2.23;;
16254;SDS011;8235;52.198;9.904;2023-04-30T08:22:19;4.80;;;2.20;;
16254;SDS011;8235;52.198;9.904;2023-04-30T08:24:47;7.03;;;3.20;;
16254;SDS011;8235;52.198;9.904;2023-04-30T08:27:13;9.00;;;2.97;;
16254;SDS011;8235;52.198;9.904;2023-04-30T08:29:40;8.97;;;2.47;;
16254;SDS011;8235;52.198;9.904;2023-04-30T08:32:06;6.70;;;2.50;;
16254;SDS011;8235;52.198;9.904;2023-04-30T08:34:34;5.03;;;2.50;;
16254;SDS011;8235;52.198;9.904;2023-04-30T08:37:01;6.87;;;2.67;;
16254;SDS011;8235;52.198;9.904;2023-04-30T08:39:27;4.97;;;2.67;;
16254;SDS011;8235;52.198;9.904;2023-04-30T08:41:54;5.83;;;2.97;;
16254;SDS011;8235;52.198;9.904;2023-04-30T08:44:22;8.70;;;2.87;;
16254;SDS011;8235;52.198;9.904;2023-04-30T08:46:49;6.10;;;2.20;;
16254;SDS011;8235;52.198;9.904;2023-04-30T08:49:19;6.73;;;2.60;;
16254;SDS011;8235;52.198;9.904;2023-04-30T08:51:48;6.77;;;2.60;;
16254;SDS011;8235;52.198;9.904;2023-04-30T08:54:14;7.63;;;2.33;;
16254;SDS011;8235;52.198;9.904;2023-04-30T08:56:43;6.83;;;2.97;;
16254;SDS011;8235;52.198;9.904;2023-04-30T08:59:10;6.97;;;2.57;;
16254;SDS011;8235;52.198;9.904;2023-04-30T09:01:37;7.73;;;2.80;;
16254;SDS011;8235;52.198;9.904;2023-04-30T09:04:04;5.80;;;2.43;;
16254;SDS011;8235;52.198;9.904;2023-04-30T09:06:31;5.57;;;2.80;;
16254;SDS011;8235;52.198;9.904;2023-04-30T09:08:59;7.33;;;2.57;;
16254;SDS011;8235;52.198;9.904;2023-04-30T09:11:34;5.63;;;2.50;;
16254;SDS011;8235;52.198;9.904;2023-04-30T09:14:01;7.37;;;3.33;;
16254;SDS011;8235;52.198;9.904;2023-04-30T09:16:28;6.73;;;2.47;;
16254;SDS011;8235;52.198;9.904;2023-04-30T09:19:09;5.30;;;2.37;;
16254;SDS011;8235;52.198;9.904;2023-04-30T09:21:36;4.93;;;3.40;;
16254;SDS011;8235;52.198;9.904;2023-04-30T09:24:04;7.70;;;3.07;;
16254;SDS011;8235;52.198;9.904;2023-04-30T09:26:31;7.47;;;2.87;;
16254;SDS011;8235;52.198;9.904;2023-04-30T09:28:59;8.37;;;2.67;;
16254;SDS011;8235;52.198;9.904;2023-04-30T09:31:31;6.33;;;2.53;;
16254;SDS011;8235;52.198;9.904;2023-04-30T09:33:58;8.47;;;2.70;;
16254;SDS011;8235;52.198;9.904;2023-04-30T09:36:24;5.90;;;2.43;;
16254;SDS011;8235;52.198;9.904;2023-04-30T09:38:51;6.57;;;2.20;;
16254;SDS011;8235;52.198;9.904;2023-04-30T09:41:23;6.40;;;2.57;;
16254;SDS011;8235;52.198;9.904;2023-04-30T09:43:51;4.87;;;1.97;;
16254;SDS011;8235;52.198;9.904;2023-04-30T09:46:18;7.13;;;1.90;;
16254;SDS011;8235;52.198;9.904;2023-04-30T09:48:45;4.67;;;1.90;;
16254;SDS011;8235;52.198;9.904;2023-04-30T09:51:13;9.00;;;2.83;;
16254;SDS011;8235;52.198;9.904;2023-04-30T09:53:40;5.80;;;2.13;;
16254;SDS011;8235;52.198;9.904;2023-04-30T09:56:07;7.17;;;2.80;;
16254;SDS011;8235;52.198;9.904;2023-04-30T09:58:38;7.30;;;2.23;;
16254;SDS011;8235;52.198;9.904;2023-04-30T10:01:09;7.23;;;2.33;;
16254;SDS011;8235;52.198;9.904;2023-04-30T10:03:36;8.27;;;2.10;;
16254;SDS011;8235;52.198;9.904;2023-04-30T10:06:04;4.47;;;1.93;;
16254;SDS011;8235;52.198;9.904;2023-04-30T10:08:37;5.00;;;2.03;;
16254;SDS011;8235;52.198;9.904;2023-04-30T10:11:07;5.77;;;2.27;;
16254;SDS011;8235;52.198;9.904;2023-04-30T10:13:41;6.97;;;2.20;;
16254;SDS011;8235;52.198;9.904;2023-04-30T10:16:11;4.63;;;2.00;;
16254;SDS011;8235;52.198;9.904;2023-04-30T10:18:45;7.37;;;2.03;;
16254;SDS011;8235;52.198;9.904;2023-04-30T10:21:17;5.73;;;2.17;;
16254;SDS011;8235;52.198;9.904;2023-04-30T10:23:47;8.63;;;2.67;;
16254;SDS011;8235;52.198;9.904;2023-04-30T10:26:14;6.07;;;2.40;;
16254;SDS011;8235;52.198;9.904;2023-04-30T10:28:43;4.67;;;2.77;;
16254;SDS011;8235;52.198;9.904;2023-04-30T10:31:10;5.53;;;2.30;;
16254;SDS011;8235;52.198;9.904;2023-04-30T10:33:41;4.83;;;2.20;;
16254;SDS011;8235;52.198;9.904;2023-04-30T10:36:14;5.87;;;2.10;;
16254;SDS011;8235;52.198;9.904;2023-04-30T10:38:48;6.13;;;2.10;;
16254;SDS011;8235;52.198;9.904;2023-04-30T10:41:15;7.40;;;2.60;;
16254;SDS011;8235;52.198;9.904;2023-04-30T10:43:46;8.77;;;2.20;;
16254;SDS011;8235;52.198;9.904;2023-04-30T10:46:20;3.67;;;2.20;;
16254;SDS011;8235;52.198;9.904;2023-04-30T10:48:47;4.17;;;2.40;;
16254;SDS011;8235;52.198;9.904;2023-04-30T10:51:13;6.83;;;2.30;;
16254;SDS011;8235;52.198;9.904;2023-04-30T10:53:40;6.07;;;2.70;;
16254;SDS011;8235;52.198;9.904;2023-04-30T10:56:08;5.47;;;1.83;;
16254;SDS011;8235;52.198;9.904;2023-04-30T10:58:35;4.80;;;2.10;;
16254;SDS011;8235;52.198;9.904;2023-04-30T11:01:05;6.30;;;2.20;;
16254;SDS011;8235;52.198;9.904;2023-04-30T11:03:33;4.00;;;2.40;;
16254;SDS011;8235;52.198;9.904;2023-04-30T11:06:06;5.13;;;2.67;;
16254;SDS011;8235;52.198;9.904;2023-04-30T11:08:34;6.00;;;2.40;;
16254;SDS011;8235;52.198;9.904;2023-04-30T11:11:01;5.27;;;2.50;;
16254;SDS011;8235;52.198;9.904;2023-04-30T11:13:37;4.33;;;2.10;;
16254;SDS011;8235;52.198;9.904;2023-04-30T11:16:07;5.77;;;2.20;;
16254;SDS011;8235;52.198;9.904;2023-04-30T11:18:34;5.20;;;2.20;;
16254;SDS011;8235;52.198;9.904;2023-04-30T11:21:07;3.40;;;1.90;;
16254;SDS011;8235;52.198;9.904;2023-04-30T11:23:34;5.53;;;2.43;;
16254;SDS011;8235;52.198;9.904;2023-04-30T11:26:01;3.27;;;2.27;;
16254;SDS011;8235;52.198;9.904;2023-04-30T11:28:31;5.93;;;2.33;;
16254;SDS011;8235;52.198;9.904;2023-04-30T11:30:58;4.50;;;2.07;;
16254;SDS011;8235;52.198;9.904;2023-04-30T11:33:27;4.50;;;2.13;;
16254;SDS011;8235;52.198;9.904;2023-04-30T11:35:55;7.13;;;2.67;;
16254;SDS011;8235;52.198;9.904;2023-04-30T11:38:25;6.70;;;2.20;;
16254;SDS011;8235;52.198;9.904;2023-04-30T11:40:52;3.77;;;2.00;;
16254;SDS011;8235;52.198;9.904;2023-04-30T11:43:20;4.70;;;2.23;;
16254;SDS011;8235;52.198;9.904;2023-04-30T11:48:39;3.87;;;2.20;;
16254;SDS011;8235;52.198;9.904;2023-04-30T11:51:13;5.03;;;2.30;;
16254;SDS011;8235;52.198;9.904;2023-04-30T11:53:40;4.50;;;2.33;;
16254;SDS011;8235;52.198;9.904;2023-04-30T11:56:07;5.53;;;2.33;;
16254;SDS011;8235;52.198;9.904;2023-04-30T11:58:34;5.10;;;2.30;;
16254;SDS011;8235;52.198;9.904;2023-04-30T12:01:03;6.27;;;2.47;;
16254;SDS011;8235;52.198;9.904;2023-04-30T12:03:30;4.60;;;2.00;;
16254;SDS011;8235;52.198;9.904;2023-04-30T12:05:58;5.93;;;2.90;;
16254;SDS011;8235;52.198;9.904;2023-04-30T12:08:25;5.33;;;2.40;;
16254;SDS011;8235;52.198;9.904;2023-04-30T12:10:52;5.77;;;2.00;;
16254;SDS011;8235;52.198;9.904;2023-04-30T12:13:18;7.73;;;2.20;;
16254;SDS011;8235;52.198;9.904;2023-04-30T12:15:55;4.43;;;2.10;;
16254;SDS011;8235;52.198;9.904;2023-04-30T12:18:23;5.63;;;2.40;;
16254;SDS011;8235;52.198;9.904;2023-04-30T12:20:49;3.67;;;2.03;;
16254;SDS011;8235;52.198;9.904;2023-04-30T12:23:18;3.87;;;2.23;;
16254;SDS011;8235;52.198;9.904;2023-04-30T12:25:45;4.27;;;1.90;;
16254;SDS011;8235;52.198;9.904;2023-04-30T12:28:11;4.80;;;2.13;;
16254;SDS011;8235;52.198;9.904;2023-04-30T12:30:38;3.80;;;2.10;;
16254;SDS011;8235;52.198;9.904;2023-04-30T12:33:04;4.60;;;2.07;;
16254;SDS011;8235;52.198;9.904;2023-04-30T12:35:31;3.80;;;1.90;;
16254;SDS011;8235;52.198;9.904;2023-04-30T12:38:01;5.60;;;2.00;;
16254;SDS011;8235;52.198;9.904;2023-04-30T12:40:31;4.90;;;1.90;;
16254;SDS011;8235;52.198;9.904;2023-04-30T12:42:58;3.80;;;1.90;;
16254;SDS011;8235;52.198;9.904;2023-04-30T12:45:45;5.57;;;2.50;;
16254;SDS011;8235;52.198;9.904;2023-04-30T12:48:13;3.80;;;2.00;;
16254;SDS011;8235;52.198;9.904;2023-04-30T12:50:40;4.43;;;2.07;;
16254;SDS011;8235;52.198;9.904;2023-04-30T12:53:07;3.83;;;2.20;;
16254;SDS011;8235;52.198;9.904;2023-04-30T12:55:35;4.37;;;1.93;;
16254;SDS011;8235;52.198;9.904;2023-04-30T12:58:07;5.83;;;2.60;;
16254;SDS011;8235;52.198;9.904;2023-04-30T13:00:46;3.53;;;2.07;;
16254;SDS011;8235;52.198;9.904;2023-04-30T13:03:14;4.53;;;2.00;;
16254;SDS011;8235;52.198;9.904;2023-04-30T13:05:45;6.43;;;2.43;;
16254;SDS011;8235;52.198;9.904;2023-04-30T13:08:12;5.50;;;2.60;;
16254;SDS011;8235;52.198;9.904;2023-04-30T13:10:40;7.47;;;2.50;;
16254;SDS011;8235;52.198;9.904;2023-04-30T13:13:07;4.03;;;2.33;;
16254;SDS011;8235;52.198;9.904;2023-04-30T13:15:33;6.07;;;2.23;;
16254;SDS011;8235;52.198;9.904;2023-04-30T13:18:00;6.83;;;2.50;;
16254;SDS011;8235;52.198;9.904;2023-04-30T13:20:27;6.57;;;2.37;;
16254;SDS011;8235;52.198;9.904;2023-04-30T13:22:54;5.23;;;2.43;;
16254;SDS011;8235;52.198;9.904;2023-04-30T13:25:20;4.50;;;2.93;;
16254;SDS011;8235;52.198;9.904;2023-04-30T13:27:48;3.80;;;2.17;;
16254;SDS011;8235;52.198;9.904;2023-04-30T13:30:15;5.83;;;2.60;;
16254;SDS011;8235;52.198;9.904;2023-04-30T13:32:41;5.57;;;2.30;;
16254;SDS011;8235;52.198;9.904;2023-04-30T13:35:09;7.40;;;2.77;;
16254;SDS011;8235;52.198;9.904;2023-04-30T13:37:35;4.23;;;2.67;;
16254;SDS011;8235;52.198;9.904;2023-04-30T13:40:02;4.50;;;2.30;;
16254;SDS011;8235;52.198;9.904;2023-04-30T13:42:30;5.43;;;2.00;;
16254;SDS011;8235;52.198;9.904;2023-04-30T13:44:58;5.57;;;2.30;;
16254;SDS011;8235;52.198;9.904;2023-04-30T13:47:25;4.57;;;2.03;;
16254;SDS011;8235;52.198;9.904;2023-04-30T13:49:51;5.57;;;1.83;;
16254;SDS011;8235;52.198;9.904;2023-04-30T13:52:17;5.23;;;2.10;;
16254;SDS011;8235;52.198;9.904;2023-04-30T13:54:44;4.07;;;1.93;;
16254;SDS011;8235;52.198;9.904;2023-04-30T13:57:10;6.60;;;2.13;;
16254;SDS011;8235;52.198;9.904;2023-04-30T13:59:37;4.07;;;2.10;;
16254;SDS011;8235;52.198;9.904;2023-04-30T14:02:05;2.67;;;1.80;;
16254;SDS011;8235;52.198;9.904;2023-04-30T14:04:32;8.00;;;2.70;;
16254;SDS011;8235;52.198;9.904;2023-04-30T14:06:58;5.17;;;2.37;;
16254;SDS011;8235;52.198;9.904;2023-04-30T14:09:26;4.80;;;2.27;;
16254;SDS011;8235;52.198;9.904;2023-04-30T14:11:53;5.27;;;2.37;;
16254;SDS011;8235;52.198;9.904;2023-04-30T14:14:22;5.27;;;2.03;;
16254;SDS011;8235;52.198;9.904;2023-04-30T14:16:48;4.23;;;1.90;;
16254;SDS011;8235;52.198;9.904;2023-04-30T14:19:16;5.60;;;2.43;;
16254;SDS011;8235;52.198;9.904;2023-04-30T14:21:43;8.43;;;2.37;;
16254;SDS011;8235;52.198;9.904;2023-04-30T14:24:09;4.87;;;2.13;;
16254;SDS011;8235;52.198;9.904;2023-04-30T14:26:36;4.27;;;1.80;;
16254;SDS011;8235;52.198;9.904;2023-04-30T14:29:03;4.80;;;2.00;;
16254;SDS011;8235;52.198;9.904;2023-04-30T14:31:29;6.07;;;1.97;;
16254;SDS011;8235;52.198;9.904;2023-04-30T14:33:55;4.43;;;2.07;;
16254;SDS011;8235;52.198;9.904;2023-04-30T14:36:23;8.47;;;2.50;;
16254;SDS011;8235;52.198;9.904;2023-04-30T14:38:51;4.87;;;1.90;;
16254;SDS011;8235;52.198;9.904;2023-04-30T14:41:18;4.37;;;2.13;;
16254;SDS011;8235;52.198;9.904;2023-04-30T14:43:45;4.63;;;2.03;;
16254;SDS011;8235;52.198;9.904;2023-04-30T14:46:11;3.43;;;2.20;;
16254;SDS011;8235;52.198;9.904;2023-04-30T14:48:38;4.80;;;1.70;;
16254;SDS011;8235;52.198;9.904;2023-04-30T14:51:05;7.83;;;2.07;;
16254;SDS011;8235;52.198;9.904;2023-04-30T14:53:33;4.40;;;1.90;;
16254;SDS011;8235;52.198;9.904;2023-04-30T14:55:59;8.23;;;2.27;;
16254;SDS011;8235;52.198;9.904;2023-04-30T14:58:26;5.37;;;2.10;;
16254;SDS011;8235;52.198;9.904;2023-04-30T15:00:52;3.07;;;1.70;;
16254;SDS011;8235;52.198;9.904;2023-04-30T15:03:19;3.80;;;2.40;;
16254;SDS011;8235;52.198;9.904;2023-04-30T15:05:45;6.63;;;2.70;;
16254;SDS011;8235;52.198;9.904;2023-04-30T15:08:13;3.90;;;2.03;;